sensor_id;sensor_type;location;lat;lon;timestamp;temperature;humidity
19496;DHT22;9888;48.606;9.630;2023-11-22T00:01:23;5.70;99.90
19496;DHT22;9888;48.606;9.630;2023-11-22T00:03:52;5.60;99.90
19496;DHT22;9888;48.606;9.630;2023-11-22T00:06:19;5.60;99.90
19496;DHT22;9888;48.606;9.630;2023-11-22T00:08:47;5.60;99.90
19496;DHT22;9888;48.606;9.630;2023-11-22T00:11:14;5.60;99.90
19496;DHT22;9888;48.606;9.630;2023-11-22T00:13:42;5.60;99.90
19496;DHT22;9888;48.606;9.630;2023-11-22T00:16:09;5.60;99.90
19496;DHT22;9888;48.606;9.630;2023-11-22T00:18:36;5.60;99.90
19496;DHT22;9888;48.606;9.630;2023-11-22T00:21:07;5.60;99.90
19496;DHT22;9888;48.606;9.630;2023-11-22T00:23:34;5.60;99.90
19496;DHT22;9888;48.606;9.630;2023-11-22T00:26:01;5.60;99.90
19496;DHT22;9888;48.606;9.630;2023-11-22T00:28:29;5.70;99.90
19496;DHT22;9888;48.606;9.630;2023-11-22T00:30:56;5.70;99.90
19496;DHT22;9888;48.606;9.630;2023-11-22T00:33:23;5.60;99.90
19496;DHT22;9888;48.606;9.630;2023-11-22T00:35:51;5.60;99.90
19496;DHT22;9888;48.606;9.630;2023-11-22T00:38:20;5.60;99.90
19496;DHT22;9888;48.606;9.630;2023-11-22T00:40:47;5.60;99.90
19496;DHT22;9888;48.606;9.630;2023-11-22T00:43:16;5.60;99.90
19496;DHT22;9888;48.606;9.630;2023-11-22T00:45:43;5.50;99.90
19496;DHT22;9888;48.606;9.630;2023-11-22T00:48:13;5.50;99.90
19496;DHT22;9888;48.606;9.630;2023-11-22T00:50:40;5.30;99.90
19496;DHT22;9888;48.606;9.630;2023-11-22T00:53:07;5.30;99.90
19496;DHT22;9888;48.606;9.630;2023-11-22T00:55:35;5.10;99.90
19496;DHT22;9888;48.606;9.630;2023-11-22T00:58:02;5.00;99.90
19496;DHT22;9888;48.606;9.630;2023-11-22T01:00:34;4.90;99.90
19496;DHT22;9888;48.606;9.630;2023-11-22T01:03:01;4.80;99.90
19496;DHT22;9888;48.606;9.630;2023-11-22T01:05:31;4.70;99.90
19496;DHT22;9888;48.606;9.630;2023-11-22T01:07:59;4.70;99.90
19496;DHT22;9888;48.606;9.630;2023-11-22T01:10:26;4.60;99.90
19496;DHT22;9888;48.606;9.630;2023-11-22T01:12:53;4.50;99.90
19496;DHT22;9888;48.606;9.630;2023-11-22T01:15:21;4.50;99.90
19496;DHT22;9888;48.606;9.630;2023-11-22T01:17:48;4.50;99.90
19496;DHT22;9888;48.606;9.630;2023-11-22T01:20:15;4.40;99.90
19496;DHT22;9888;48.606;9.630;2023-11-22T01:22:43;4.30;99.90
19496;DHT22;9888;48.606;9.630;2023-11-22T01:25:10;4.30;99.90
19496;DHT22;9888;48.606;9.630;2023-11-22T01:27:40;4.30;99.90
19496;DHT22;9888;48.606;9.630;2023-11-22T01:30:08;4.30;99.90
19496;DHT22;9888;48.606;9.630;2023-11-22T01:32:36;4.30;99.90
19496;DHT22;9888;48.606;9.630;2023-11-22T01:35:03;4.20;99.90
19496;DHT22;9888;48.606;9.630;2023-11-22T01:37:33;4.00;99.90
19496;DHT22;9888;48.606;9.630;2023-11-22T01:40:02;4.00;99.90
19496;DHT22;9888;48.606;9.630;2023-11-22T01:42:29;4.00;99.90
19496;DHT22;9888;48.606;9.630;2023-11-22T01:44:57;3.90;99.90
19496;DHT22;9888;48.606;9.630;2023-11-22T01:47:25;3.90;99.90
19496;DHT22;9888;48.606;9.630;2023-11-22T01:49:53;3.90;99.90
19496;DHT22;9888;48.606;9.630;2023-11-22T01:52:21;3.90;99.90
19496;DHT22;9888;48.606;9.630;2023-11-22T01:54:48;3.90;99.90
19496;DHT22;9888;48.606;9.630;2023-11-22T01:57:16;3.90;99.90
19496;DHT22;9888;48.606;9.630;2023-11-22T01:59:45;3.80;99.90
19496;DHT22;9888;48.606;9.630;2023-11-22T02:02:14;3.80;99.90
19496;DHT22;9888;48.606;9.630;2023-11-22T02:04:41;3.70;99.90
19496;DHT22;9888;48.606;9.630;2023-11-22T02:07:10;3.70;99.90
19496;DHT22;9888;48.606;9.630;2023-11-22T02:09:38;3.70;99.90
19496;DHT22;9888;48.606;9.630;2023-11-22T02:12:05;3.70;99.90
19496;DHT22;9888;48.606;9.630;2023-11-22T02:14:33;3.60;99.90
19496;DHT22;9888;48.606;9.630;2023-11-22T02:17:00;3.60;99.90
19496;DHT22;9888;48.606;9.630;2023-11-22T02:19:27;3.60;99.90
19496;DHT22;9888;48.606;9.630;2023-11-22T02:21:56;3.50;99.90
19496;DHT22;9888;48.606;9.630;2023-11-22T02:24:24;3.50;99.90
19496;DHT22;9888;48.606;9.630;2023-11-22T02:26:51;3.40;99.90
19496;DHT22;9888;48.606;9.630;2023-11-22T02:29:17;3.40;99.90
19496;DHT22;9888;48.606;9.630;2023-11-22T02:31:45;3.40;99.90
19496;DHT22;9888;48.606;9.630;2023-11-22T02:34:12;3.40;99.90
19496;DHT22;9888;48.606;9.630;2023-11-22T02:36:42;3.40;99.90
19496;DHT22;9888;48.606;9.630;2023-11-22T02:39:12;3.40;99.90
19496;DHT22;9888;48.606;9.630;2023-11-22T02:41:40;3.40;99.90
19496;DHT22;9888;48.606;9.630;2023-11-22T02:44:07;3.30;99.90
19496;DHT22;9888;48.606;9.630;2023-11-22T02:46:35;3.30;99.90
19496;DHT22;9888;48.606;9.630;2023-11-22T02:49:02;3.30;99.90
19496;DHT22;9888;48.606;9.630;2023-11-22T02:51:30;3.30;99.90
19496;DHT22;9888;48.606;9.630;2023-11-22T02:53:57;3.30;99.90
19496;DHT22;9888;48.606;9.630;2023-11-22T02:56:24;3.30;99.90
19496;DHT22;9888;48.606;9.630;2023-11-22T02:58:52;3.20;99.90
19496;DHT22;9888;48.606;9.630;2023-11-22T03:01:20;3.20;99.90
19496;DHT22;9888;48.606;9.630;2023-11-22T03:03:47;3.20;99.90
19496;DHT22;9888;48.606;9.630;2023-11-22T03:06:15;3.10;99.90
19496;DHT22;9888;48.606;9.630;2023-11-22T03:08:42;3.10;99.90
19496;DHT22;9888;48.606;9.630;2023-11-22T03:11:11;3.10;99.90
19496;DHT22;9888;48.606;9.630;2023-11-22T03:13:38;3.00;99.90
19496;DHT22;9888;48.606;9.630;2023-11-22T03:16:05;2.90;99.90
19496;DHT22;9888;48.606;9.630;2023-11-22T03:18:32;2.90;99.90
19496;DHT22;9888;48.606;9.630;2023-11-22T03:21:00;2.70;99.90
19496;DHT22;9888;48.606;9.630;2023-11-22T03:23:27;2.60;99.90
19496;DHT22;9888;48.606;9.630;2023-11-22T03:25:55;2.60;99.90
19496;DHT22;9888;48.606;9.630;2023-11-22T03:28:23;2.50;99.90
19496;DHT22;9888;48.606;9.630;2023-11-22T03:34:13;2.50;99.90
19496;DHT22;9888;48.606;9.630;2023-11-22T03:36:41;2.40;99.90
19496;DHT22;9888;48.606;9.630;2023-11-22T03:39:09;2.40;99.90
19496;DHT22;9888;48.606;9.630;2023-11-22T03:41:37;2.30;99.90
19496;DHT22;9888;48.606;9.630;2023-11-22T03:44:04;2.20;99.90
19496;DHT22;9888;48.606;9.630;2023-11-22T03:46:36;2.20;99.90
19496;DHT22;9888;48.606;9.630;2023-11-22T03:49:05;2.20;99.90
19496;DHT22;9888;48.606;9.630;2023-11-22T03:51:37;2.20;99.90
19496;DHT22;9888;48.606;9.630;2023-11-22T03:54:04;2.10;99.90
19496;DHT22;9888;48.606;9.630;2023-11-22T03:56:46;2.10;99.90
19496;DHT22;9888;48.606;9.630;2023-11-22T03:59:13;2.10;99.90
19496;DHT22;9888;48.606;9.630;2023-11-22T04:01:40;2.00;99.90
19496;DHT22;9888;48.606;9.630;2023-11-22T04:04:08;2.00;99.90
19496;DHT22;9888;48.606;9.630;2023-11-22T04:06:36;2.00;99.90
19496;DHT22;9888;48.606;9.630;2023-11-22T04:09:04;2.00;99.90
19496;DHT22;9888;48.606;9.630;2023-11-22T04:11:32;1.90;99.90
19496;DHT22;9888;48.606;9.630;2023-11-22T04:13:59;1.90;99.90
19496;DHT22;9888;48.606;9.630;2023-11-22T04:16:26;1.90;99.90
19496;DHT22;9888;48.606;9.630;2023-11-22T04:18:54;1.90;99.90
19496;DHT22;9888;48.606;9.630;2023-11-22T04:21:23;1.80;99.90
19496;DHT22;9888;48.606;9.630;2023-11-22T04:23:51;1.70;99.90
19496;DHT22;9888;48.606;9.630;2023-11-22T04:26:20;1.70;99.90
19496;DHT22;9888;48.606;9.630;2023-11-22T04:28:48;1.60;99.90
19496;DHT22;9888;48.606;9.630;2023-11-22T04:31:15;1.50;99.90
19496;DHT22;9888;48.606;9.630;2023-11-22T04:33:43;1.40;99.90
19496;DHT22;9888;48.606;9.630;2023-11-22T04:36:10;1.30;99.90
19496;DHT22;9888;48.606;9.630;2023-11-22T04:38:38;1.30;99.90
19496;DHT22;9888;48.606;9.630;2023-11-22T04:41:06;1.20;99.90
19496;DHT22;9888;48.606;9.630;2023-11-22T04:43:34;1.20;99.90
19496;DHT22;9888;48.606;9.630;2023-11-22T04:46:01;1.10;99.90
19496;DHT22;9888;48.606;9.630;2023-11-22T04:48:28;1.10;99.90
19496;DHT22;9888;48.606;9.630;2023-11-22T04:50:56;1.10;99.90
19496;DHT22;9888;48.606;9.630;2023-11-22T04:53:23;1.10;99.90
19496;DHT22;9888;48.606;9.630;2023-11-22T04:55:50;1.10;99.90
19496;DHT22;9888;48.606;9.630;2023-11-22T04:58:17;1.00;99.90
19496;DHT22;9888;48.606;9.630;2023-11-22T05:00:45;1.00;99.90
19496;DHT22;9888;48.606;9.630;2023-11-22T05:03:12;1.00;99.90
19496;DHT22;9888;48.606;9.630;2023-11-22T05:05:39;1.00;99.90
19496;DHT22;9888;48.606;9.630;2023-11-22T05:08:07;1.00;99.90
19496;DHT22;9888;48.606;9.630;2023-11-22T05:10:34;1.00;99.90
19496;DHT22;9888;48.606;9.630;2023-11-22T05:13:04;1.00;99.90
19496;DHT22;9888;48.606;9.630;2023-11-22T05:15:31;1.00;99.90
19496;DHT22;9888;48.606;9.630;2023-11-22T05:17:59;1.00;99.90
19496;DHT22;9888;48.606;9.630;2023-11-22T05:20:26;1.00;99.90
19496;DHT22;9888;48.606;9.630;2023-11-22T05:22:53;1.00;99.90
19496;DHT22;9888;48.606;9.630;2023-11-22T05:25:20;1.00;99.90
19496;DHT22;9888;48.606;9.630;2023-11-22T05:27:48;1.00;99.90
19496;DHT22;9888;48.606;9.630;2023-11-22T05:30:17;0.90;99.90
19496;DHT22;9888;48.606;9.630;2023-11-22T05:32:44;0.90;99.90
19496;DHT22;9888;48.606;9.630;2023-11-22T05:35:11;0.90;99.90
19496;DHT22;9888;48.606;9.630;2023-11-22T05:37:39;0.90;99.90
19496;DHT22;9888;48.606;9.630;2023-11-22T05:40:07;0.90;99.90
19496;DHT22;9888;48.606;9.630;2023-11-22T05:42:36;1.00;99.90
19496;DHT22;9888;48.606;9.630;2023-11-22T05:45:03;1.00;99.90
19496;DHT22;9888;48.606;9.630;2023-11-22T05:47:31;1.00;99.90
19496;DHT22;9888;48.606;9.630;2023-11-22T05:49:59;1.00;99.90
19496;DHT22;9888;48.606;9.630;2023-11-22T05:52:26;1.00;99.90
19496;DHT22;9888;48.606;9.630;2023-11-22T05:54:54;0.90;99.90
19496;DHT22;9888;48.606;9.630;2023-11-22T05:57:22;0.90;99.90
19496;DHT22;9888;48.606;9.630;2023-11-22T05:59:49;1.00;99.90
19496;DHT22;9888;48.606;9.630;2023-11-22T06:02:17;1.10;99.90
19496;DHT22;9888;48.606;9.630;2023-11-22T06:04:43;1.10;99.90
19496;DHT22;9888;48.606;9.630;2023-11-22T06:07:11;1.10;99.90
19496;DHT22;9888;48.606;9.630;2023-11-22T06:09:39;1.10;99.90
19496;DHT22;9888;48.606;9.630;2023-11-22T06:15:11;1.10;99.90
19496;DHT22;9888;48.606;9.630;2023-11-22T06:17:39;1.10;99.90
19496;DHT22;9888;48.606;9.630;2023-11-22T06:20:06;1.10;99.90
19496;DHT22;9888;48.606;9.630;2023-11-22T06:22:34;1.10;99.90
19496;DHT22;9888;48.606;9.630;2023-11-22T06:25:01;1.00;99.90
19496;DHT22;9888;48.606;9.630;2023-11-22T06:27:29;1.00;99.90
19496;DHT22;9888;48.606;9.630;2023-11-22T06:29:56;1.00;99.90
19496;DHT22;9888;48.606;9.630;2023-11-22T06:32:24;1.00;99.90
19496;DHT22;9888;48.606;9.630;2023-11-22T06:34:51;0.90;99.90
19496;DHT22;9888;48.606;9.630;2023-11-22T06:37:18;1.00;99.90
19496;DHT22;9888;48.606;9.630;2023-11-22T06:39:45;1.00;99.90
19496;DHT22;9888;48.606;9.630;2023-11-22T06:42:14;1.00;99.90
19496;DHT22;9888;48.606;9.630;2023-11-22T06:44:42;1.00;99.90
19496;DHT22;9888;48.606;9.630;2023-11-22T06:47:09;1.00;99.90
19496;DHT22;9888;48.606;9.630;2023-11-22T06:49:37;1.00;99.90
19496;DHT22;9888;48.606;9.630;2023-11-22T06:52:05;1.00;99.90
19496;DHT22;9888;48.606;9.630;2023-11-22T06:54:32;1.00;99.90
19496;DHT22;9888;48.606;9.630;2023-11-22T06:56:59;1.10;99.90
19496;DHT22;9888;48.606;9.630;2023-11-22T06:59:27;1.10;99.90
19496;DHT22;9888;48.606;9.630;2023-11-22T07:01:53;1.00;99.90
19496;DHT22;9888;48.606;9.630;2023-11-22T07:04:22;1.00;99.90
19496;DHT22;9888;48.606;9.630;2023-11-22T07:06:49;1.00;99.90
19496;DHT22;9888;48.606;9.630;2023-11-22T07:09:16;1.00;99.90
19496;DHT22;9888;48.606;9.630;2023-11-22T07:11:43;1.00;99.90
19496;DHT22;9888;48.606;9.630;2023-11-22T07:14:11;0.90;99.90
19496;DHT22;9888;48.606;9.630;2023-11-22T07:16:37;0.90;99.90
19496;DHT22;9888;48.606;9.630;2023-11-22T07:19:06;0.90;99.90
19496;DHT22;9888;48.606;9.630;2023-11-22T07:21:34;0.90;99.90
19496;DHT22;9888;48.606;9.630;2023-11-22T07:24:04;0.90;99.90
19496;DHT22;9888;48.606;9.630;2023-11-22T07:26:33;0.90;99.90
19496;DHT22;9888;48.606;9.630;2023-11-22T07:29:00;0.90;99.90
19496;DHT22;9888;48.606;9.630;2023-11-22T07:31:27;0.90;99.90
19496;DHT22;9888;48.606;9.630;2023-11-22T07:33:56;1.00;99.90
19496;DHT22;9888;48.606;9.630;2023-11-22T07:36:23;0.90;99.90
19496;DHT22;9888;48.606;9.630;2023-11-22T07:38:50;0.90;99.90
19496;DHT22;9888;48.606;9.630;2023-11-22T07:41:19;0.90;99.90
19496;DHT22;9888;48.606;9.630;2023-11-22T07:43:47;0.90;99.90
19496;DHT22;9888;48.606;9.630;2023-11-22T07:46:15;0.90;99.90
19496;DHT22;9888;48.606;9.630;2023-11-22T07:48:44;0.90;99.90
19496;DHT22;9888;48.606;9.630;2023-11-22T07:51:14;0.90;99.90
19496;DHT22;9888;48.606;9.630;2023-11-22T07:53:43;0.90;99.90
19496;DHT22;9888;48.606;9.630;2023-11-22T07:56:10;0.90;99.90
19496;DHT22;9888;48.606;9.630;2023-11-22T07:58:37;0.90;99.90
19496;DHT22;9888;48.606;9.630;2023-11-22T08:01:05;0.90;99.90
19496;DHT22;9888;48.606;9.630;2023-11-22T08:03:33;1.00;99.90
19496;DHT22;9888;48.606;9.630;2023-11-22T08:06:01;1.00;99.90
19496;DHT22;9888;48.606;9.630;2023-11-22T08:08:29;1.00;99.90
19496;DHT22;9888;48.606;9.630;2023-11-22T08:10:57;0.90;99.90
19496;DHT22;9888;48.606;9.630;2023-11-22T08:13:24;0.90;99.90
19496;DHT22;9888;48.606;9.630;2023-11-22T08:15:53;0.80;99.90
19496;DHT22;9888;48.606;9.630;2023-11-22T08:18:20;0.80;99.90
19496;DHT22;9888;48.606;9.630;2023-11-22T08:20:48;0.80;99.90
19496;DHT22;9888;48.606;9.630;2023-11-22T08:23:16;0.80;99.90
19496;DHT22;9888;48.606;9.630;2023-11-22T08:25:43;0.90;99.90
19496;DHT22;9888;48.606;9.630;2023-11-22T08:28:11;0.90;99.90
19496;DHT22;9888;48.606;9.630;2023-11-22T08:30:39;1.00;99.90
19496;DHT22;9888;48.606;9.630;2023-11-22T08:33:07;1.00;99.90
19496;DHT22;9888;48.606;9.630;2023-11-22T08:35:34;1.00;99.90
19496;DHT22;9888;48.606;9.630;2023-11-22T08:38:01;1.00;99.90
19496;DHT22;9888;48.606;9.630;2023-11-22T08:40:29;1.00;99.90
19496;DHT22;9888;48.606;9.630;2023-11-22T08:42:57;1.00;99.90
19496;DHT22;9888;48.606;9.630;2023-11-22T08:45:24;1.10;99.90
19496;DHT22;9888;48.606;9.630;2023-11-22T08:47:51;1.10;99.90
19496;DHT22;9888;48.606;9.630;2023-11-22T08:50:18;1.20;99.90
19496;DHT22;9888;48.606;9.630;2023-11-22T08:52:46;1.20;99.90
19496;DHT22;9888;48.606;9.630;2023-11-22T08:55:13;1.30;99.90
19496;DHT22;9888;48.606;9.630;2023-11-22T08:57:41;1.30;99.90
19496;DHT22;9888;48.606;9.630;2023-11-22T09:00:08;1.30;99.90
19496;DHT22;9888;48.606;9.630;2023-11-22T09:02:36;1.30;99.90
19496;DHT22;9888;48.606;9.630;2023-11-22T09:05:05;1.30;99.90
19496;DHT22;9888;48.606;9.630;2023-11-22T09:07:37;1.30;99.90
19496;DHT22;9888;48.606;9.630;2023-11-22T09:10:05;1.20;99.90
19496;DHT22;9888;48.606;9.630;2023-11-22T09:12:40;1.30;99.90
19496;DHT22;9888;48.606;9.630;2023-11-22T09:15:08;1.20;99.90
19496;DHT22;9888;48.606;9.630;2023-11-22T09:17:41;1.10;99.90
19496;DHT22;9888;48.606;9.630;2023-11-22T09:20:15;1.10;99.90
19496;DHT22;9888;48.606;9.630;2023-11-22T09:22:43;1.10;99.90
19496;DHT22;9888;48.606;9.630;2023-11-22T09:25:18;1.20;99.90
19496;DHT22;9888;48.606;9.630;2023-11-22T09:27:49;1.30;99.90
19496;DHT22;9888;48.606;9.630;2023-11-22T09:30:22;1.30;99.90
19496;DHT22;9888;48.606;9.630;2023-11-22T09:33:05;1.40;99.90
19496;DHT22;9888;48.606;9.630;2023-11-22T09:35:33;1.50;99.90
19496;DHT22;9888;48.606;9.630;2023-11-22T09:38:02;1.40;99.90
19496;DHT22;9888;48.606;9.630;2023-11-22T09:40:30;1.40;99.90
19496;DHT22;9888;48.606;9.630;2023-11-22T09:43:00;1.40;99.90
19496;DHT22;9888;48.606;9.630;2023-11-22T09:45:29;1.40;99.90
19496;DHT22;9888;48.606;9.630;2023-11-22T09:47:57;1.50;99.90
19496;DHT22;9888;48.606;9.630;2023-11-22T09:51:02;1.50;99.90
19496;DHT22;9888;48.606;9.630;2023-11-22T09:53:52;1.50;99.90
19496;DHT22;9888;48.606;9.630;2023-11-22T09:56:27;1.60;99.90
19496;DHT22;9888;48.606;9.630;2023-11-22T09:58:55;1.60;99.90
19496;DHT22;9888;48.606;9.630;2023-11-22T10:01:24;1.60;99.90
19496;DHT22;9888;48.606;9.630;2023-11-22T10:03:54;1.60;99.90
19496;DHT22;9888;48.606;9.630;2023-11-22T10:06:22;1.60;99.90
19496;DHT22;9888;48.606;9.630;2023-11-22T10:08:51;1.60;99.90
19496;DHT22;9888;48.606;9.630;2023-11-22T10:11:19;1.60;99.90
19496;DHT22;9888;48.606;9.630;2023-11-22T10:13:52;1.60;99.90
19496;DHT22;9888;48.606;9.630;2023-11-22T10:16:20;1.70;99.90
19496;DHT22;9888;48.606;9.630;2023-11-22T10:18:49;1.70;99.90
19496;DHT22;9888;48.606;9.630;2023-11-22T10:21:29;1.60;99.90
19496;DHT22;9888;48.606;9.630;2023-11-22T10:24:02;1.70;99.90
19496;DHT22;9888;48.606;9.630;2023-11-22T10:26:29;1.70;99.90
19496;DHT22;9888;48.606;9.630;2023-11-22T10:28:57;1.70;99.90
19496;DHT22;9888;48.606;9.630;2023-11-22T10:31:27;1.80;99.90
19496;DHT22;9888;48.606;9.630;2023-11-22T10:33:55;1.80;99.90
19496;DHT22;9888;48.606;9.630;2023-11-22T10:36:24;1.80;99.90
19496;DHT22;9888;48.606;9.630;2023-11-22T10:38:52;1.70;99.90
19496;DHT22;9888;48.606;9.630;2023-11-22T10:41:21;1.70;99.90
19496;DHT22;9888;48.606;9.630;2023-11-22T10:43:54;1.70;99.90
19496;DHT22;9888;48.606;9.630;2023-11-22T10:46:27;1.60;99.90
19496;DHT22;9888;48.606;9.630;2023-11-22T10:48:55;1.60;99.90
19496;DHT22;9888;48.606;9.630;2023-11-22T10:51:25;1.50;99.90
19496;DHT22;9888;48.606;9.630;2023-11-22T10:53:56;1.50;99.90
19496;DHT22;9888;48.606;9.630;2023-11-22T10:56:26;1.60;99.90
19496;DHT22;9888;48.606;9.630;2023-11-22T10:58:58;1.60;99.90
19496;DHT22;9888;48.606;9.630;2023-11-22T11:01:27;1.60;99.90
19496;DHT22;9888;48.606;9.630;2023-11-22T11:06:32;1.50;99.90
19496;DHT22;9888;48.606;9.630;2023-11-22T11:09:02;1.50;99.90
19496;DHT22;9888;48.606;9.630;2023-11-22T11:11:37;1.50;99.90
19496;DHT22;9888;48.606;9.630;2023-11-22T11:14:09;1.50;99.90
19496;DHT22;9888;48.606;9.630;2023-11-22T11:16:39;1.60;99.90
19496;DHT22;9888;48.606;9.630;2023-11-22T11:19:26;1.60;99.90
19496;DHT22;9888;48.606;9.630;2023-11-22T11:21:56;1.60;99.90
19496;DHT22;9888;48.606;9.630;2023-11-22T11:24:24;1.60;99.90
19496;DHT22;9888;48.606;9.630;2023-11-22T11:26:52;1.60;99.90
19496;DHT22;9888;48.606;9.630;2023-11-22T11:29:37;1.50;99.90
19496;DHT22;9888;48.606;9.630;2023-11-22T11:32:16;1.50;99.90
19496;DHT22;9888;48.606;9.630;2023-11-22T11:34:58;1.60;99.90
19496;DHT22;9888;48.606;9.630;2023-11-22T11:37:33;1.70;99.90
19496;DHT22;9888;48.606;9.630;2023-11-22T11:40:25;1.70;99.90
19496;DHT22;9888;48.606;9.630;2023-11-22T11:42:55;1.70;99.90
19496;DHT22;9888;48.606;9.630;2023-11-22T11:45:23;1.70;99.90
19496;DHT22;9888;48.606;9.630;2023-11-22T11:47:51;1.70;99.90
19496;DHT22;9888;48.606;9.630;2023-11-22T11:50:20;1.70;99.90
19496;DHT22;9888;48.606;9.630;2023-11-22T11:52:47;1.80;99.90
19496;DHT22;9888;48.606;9.630;2023-11-22T11:55:14;1.90;99.90
19496;DHT22;9888;48.606;9.630;2023-11-22T11:57:44;1.90;99.90
19496;DHT22;9888;48.606;9.630;2023-11-22T12:00:14;2.00;99.90
19496;DHT22;9888;48.606;9.630;2023-11-22T12:02:41;2.00;99.90
19496;DHT22;9888;48.606;9.630;2023-11-22T12:05:09;2.00;99.90
19496;DHT22;9888;48.606;9.630;2023-11-22T12:07:38;2.00;99.90
19496;DHT22;9888;48.606;9.630;2023-11-22T12:10:06;2.00;99.90
19496;DHT22;9888;48.606;9.630;2023-11-22T12:12:35;2.00;99.90
19496;DHT22;9888;48.606;9.630;2023-11-22T12:15:02;2.00;99.90
19496;DHT22;9888;48.606;9.630;2023-11-22T12:17:30;2.00;99.90
19496;DHT22;9888;48.606;9.630;2023-11-22T12:20:15;2.00;99.90
19496;DHT22;9888;48.606;9.630;2023-11-22T12:22:45;2.00;99.90
19496;DHT22;9888;48.606;9.630;2023-11-22T12:25:14;1.90;99.90
19496;DHT22;9888;48.606;9.630;2023-11-22T12:27:43;1.90;99.90
19496;DHT22;9888;48.606;9.630;2023-11-22T12:30:46;1.80;99.90
19496;DHT22;9888;48.606;9.630;2023-11-22T12:33:22;1.80;99.90
19496;DHT22;9888;48.606;9.630;2023-11-22T12:35:50;1.70;99.90
19496;DHT22;9888;48.606;9.630;2023-11-22T12:38:18;1.70;99.90
19496;DHT22;9888;48.606;9.630;2023-11-22T12:40:46;1.60;99.90
19496;DHT22;9888;48.606;9.630;2023-11-22T12:43:15;1.60;99.90
19496;DHT22;9888;48.606;9.630;2023-11-22T12:45:43;1.50;99.90
19496;DHT22;9888;48.606;9.630;2023-11-22T12:48:25;1.50;99.90
19496;DHT22;9888;48.606;9.630;2023-11-22T12:50:58;1.50;99.90
19496;DHT22;9888;48.606;9.630;2023-11-22T12:53:26;1.50;99.90
19496;DHT22;9888;48.606;9.630;2023-11-22T12:56:03;1.40;99.90
19496;DHT22;9888;48.606;9.630;2023-11-22T12:58:33;1.30;99.90
19496;DHT22;9888;48.606;9.630;2023-11-22T13:01:02;1.20;99.90
19496;DHT22;9888;48.606;9.630;2023-11-22T13:03:38;1.20;99.90
19496;DHT22;9888;48.606;9.630;2023-11-22T13:06:08;1.20;99.90
19496;DHT22;9888;48.606;9.630;2023-11-22T13:08:36;1.10;99.90
19496;DHT22;9888;48.606;9.630;2023-11-22T13:11:04;1.20;99.90
19496;DHT22;9888;48.606;9.630;2023-11-22T13:13:31;1.20;99.90
19496;DHT22;9888;48.606;9.630;2023-11-22T13:16:04;1.20;99.90
19496;DHT22;9888;48.606;9.630;2023-11-22T13:18:33;1.10;99.90
19496;DHT22;9888;48.606;9.630;2023-11-22T13:21:03;1.10;99.90
19496;DHT22;9888;48.606;9.630;2023-11-22T13:23:31;1.00;99.90
19496;DHT22;9888;48.606;9.630;2023-11-22T13:26:01;1.00;99.90
19496;DHT22;9888;48.606;9.630;2023-11-22T13:28:28;1.00;99.90
19496;DHT22;9888;48.606;9.630;2023-11-22T13:31:00;1.00;99.90
19496;DHT22;9888;48.606;9.630;2023-11-22T13:33:29;1.00;99.90
19496;DHT22;9888;48.606;9.630;2023-11-22T13:35:58;1.00;99.90
19496;DHT22;9888;48.606;9.630;2023-11-22T13:38:25;1.00;99.90
19496;DHT22;9888;48.606;9.630;2023-11-22T13:40:54;0.90;99.90
19496;DHT22;9888;48.606;9.630;2023-11-22T13:43:25;0.90;99.90
19496;DHT22;9888;48.606;9.630;2023-11-22T13:45:54;1.00;99.90
19496;DHT22;9888;48.606;9.630;2023-11-22T13:48:23;1.00;99.90
19496;DHT22;9888;48.606;9.630;2023-11-22T13:50:52;0.90;99.90
19496;DHT22;9888;48.606;9.630;2023-11-22T13:53:21;0.90;99.90
19496;DHT22;9888;48.606;9.630;2023-11-22T13:55:52;0.90;99.90
19496;DHT22;9888;48.606;9.630;2023-11-22T13:58:21;0.90;99.90
19496;DHT22;9888;48.606;9.630;2023-11-22T14:00:49;1.00;99.90
19496;DHT22;9888;48.606;9.630;2023-11-22T14:03:21;1.00;99.90
19496;DHT22;9888;48.606;9.630;2023-11-22T14:05:48;1.10;99.90
19496;DHT22;9888;48.606;9.630;2023-11-22T14:08:16;1.10;99.90
19496;DHT22;9888;48.606;9.630;2023-11-22T14:10:44;1.10;99.90
19496;DHT22;9888;48.606;9.630;2023-11-22T14:13:14;1.10;99.90
19496;DHT22;9888;48.606;9.630;2023-11-22T14:15:40;1.00;99.90
19496;DHT22;9888;48.606;9.630;2023-11-22T14:18:08;1.00;99.90
19496;DHT22;9888;48.606;9.630;2023-11-22T14:20:36;1.00;99.90
19496;DHT22;9888;48.606;9.630;2023-11-22T14:23:06;0.90;99.90
19496;DHT22;9888;48.606;9.630;2023-11-22T14:25:34;0.90;99.90
19496;DHT22;9888;48.606;9.630;2023-11-22T14:28:02;0.90;99.90
19496;DHT22;9888;48.606;9.630;2023-11-22T14:30:31;0.90;99.90
19496;DHT22;9888;48.606;9.630;2023-11-22T14:33:02;0.90;99.90
19496;DHT22;9888;48.606;9.630;2023-11-22T14:35:33;0.90;99.90
19496;DHT22;9888;48.606;9.630;2023-11-22T14:38:01;0.90;99.90
19496;DHT22;9888;48.606;9.630;2023-11-22T14:40:30;1.00;99.90
19496;DHT22;9888;48.606;9.630;2023-11-22T14:42:59;1.00;99.90
19496;DHT22;9888;48.606;9.630;2023-11-22T14:45:29;1.00;99.90
19496;DHT22;9888;48.606;9.630;2023-11-22T14:47:57;1.00;99.90
19496;DHT22;9888;48.606;9.630;2023-11-22T14:50:27;0.90;99.90
19496;DHT22;9888;48.606;9.630;2023-11-22T14:52:56;0.90;99.90
19496;DHT22;9888;48.606;9.630;2023-11-22T14:55:24;0.90;99.90
19496;DHT22;9888;48.606;9.630;2023-11-22T14:57:53;0.90;99.90
19496;DHT22;9888;48.606;9.630;2023-11-22T15:00:23;0.90;99.90
19496;DHT22;9888;48.606;9.630;2023-11-22T15:02:53;0.90;99.90
19496;DHT22;9888;48.606;9.630;2023-11-22T15:05:22;0.90;99.90
19496;DHT22;9888;48.606;9.630;2023-11-22T15:07:51;0.90;99.90
19496;DHT22;9888;48.606;9.630;2023-11-22T15:10:22;0.80;99.90
19496;DHT22;9888;48.606;9.630;2023-11-22T15:12:51;0.80;99.90
19496;DHT22;9888;48.606;9.630;2023-11-22T15:15:20;0.80;99.90
19496;DHT22;9888;48.606;9.630;2023-11-22T15:17:53;0.80;99.90
19496;DHT22;9888;48.606;9.630;2023-11-22T15:20:28;0.80;99.90
19496;DHT22;9888;48.606;9.630;2023-11-22T15:23:03;0.70;99.90
19496;DHT22;9888;48.606;9.630;2023-11-22T15:25:33;0.70;99.90
19496;DHT22;9888;48.606;9.630;2023-11-22T15:28:01;0.70;99.90
19496;DHT22;9888;48.606;9.630;2023-11-22T15:30:31;0.70;99.90
19496;DHT22;9888;48.606;9.630;2023-11-22T15:32:58;0.70;99.90
19496;DHT22;9888;48.606;9.630;2023-11-22T15:35:27;0.70;99.90
19496;DHT22;9888;48.606;9.630;2023-11-22T15:37:55;0.60;99.90
19496;DHT22;9888;48.606;9.630;2023-11-22T15:40:24;0.60;99.90
19496;DHT22;9888;48.606;9.630;2023-11-22T15:42:52;0.60;99.90
19496;DHT22;9888;48.606;9.630;2023-11-22T15:45:20;0.60;99.90
19496;DHT22;9888;48.606;9.630;2023-11-22T15:47:48;0.60;99.90
19496;DHT22;9888;48.606;9.630;2023-11-22T15:50:15;0.60;99.90
19496;DHT22;9888;48.606;9.630;2023-11-22T15:52:43;0.60;99.90
19496;DHT22;9888;48.606;9.630;2023-11-22T15:55:10;0.60;99.90
19496;DHT22;9888;48.606;9.630;2023-11-22T15:57:38;0.60;99.90
19496;DHT22;9888;48.606;9.630;2023-11-22T16:00:06;0.60;99.90
19496;DHT22;9888;48.606;9.630;2023-11-22T16:02:38;0.50;99.90
19496;DHT22;9888;48.606;9.630;2023-11-22T16:05:06;0.50;99.90
19496;DHT22;9888;48.606;9.630;2023-11-22T16:07:34;0.40;99.90
19496;DHT22;9888;48.606;9.630;2023-11-22T16:10:02;0.50;99.90
19496;DHT22;9888;48.606;9.630;2023-11-22T16:12:32;0.40;99.90
19496;DHT22;9888;48.606;9.630;2023-11-22T16:14:59;0.20;99.90
19496;DHT22;9888;48.606;9.630;2023-11-22T16:17:27;0.20;99.90
19496;DHT22;9888;48.606;9.630;2023-11-22T16:19:55;0.20;99.90
19496;DHT22;9888;48.606;9.630;2023-11-22T16:22:28;0.20;99.90